createdAt,value
2022-09-12T00:00:00.572Z,71.10
2022-09-12T00:02:28.439Z,72.00
2022-09-12T00:04:57.657Z,72.60
2022-09-12T00:07:25.521Z,72.80
2022-09-12T00:09:53.387Z,71.50
2022-09-12T00:12:21.259Z,70.50
2022-09-12T00:14:49.100Z,70.30
2022-09-12T00:17:16.977Z,69.20
2022-09-12T00:19:44.849Z,69.90
2022-09-12T00:22:14.076Z,70.30
2022-09-12T00:24:41.937Z,69.30
2022-09-12T00:27:09.868Z,68.40
2022-09-12T00:29:37.693Z,69.00
2022-09-12T00:32:05.888Z,69.60
2022-09-12T00:34:33.725Z,71.00
2022-09-12T00:37:01.603Z,72.90
2022-09-12T00:39:30.788Z,73.10
2022-09-12T00:41:58.657Z,72.70
2022-09-12T00:44:45.884Z,70.90
2022-09-12T00:47:15.506Z,73.40
2022-09-12T00:49:45.120Z,73.30
2022-09-12T00:52:13.226Z,72.70
2022-09-12T00:54:44.731Z,73.90
2022-09-12T00:57:12.740Z,73.10
2022-09-12T00:59:41.064Z,72.80
2022-09-12T01:02:09.043Z,72.80
2022-09-12T01:04:37.052Z,72.40
2022-09-12T01:07:05.025Z,71.50
2022-09-12T01:09:32.878Z,71.10
2022-09-12T01:12:02.268Z,71.60
2022-09-12T01:14:30.164Z,71.40
2022-09-12T01:16:58.044Z,71.50
2022-09-12T01:19:51.359Z,70.50
2022-09-12T01:22:26.766Z,70.60
2022-09-12T01:24:55.168Z,69.40
2022-09-12T01:27:40.272Z,70.30
2022-09-12T01:30:25.793Z,70.10
2022-09-12T01:33:17.898Z,70.60
2022-09-12T01:35:49.486Z,71.10
2022-09-12T01:38:20.872Z,70.70
2022-09-12T01:40:50.354Z,70.10
2022-09-12T01:43:19.369Z,70.20
2022-09-12T01:45:47.666Z,70.20
2022-09-12T01:48:16.765Z,69.80
2022-09-12T01:50:47.403Z,70.10
2022-09-12T01:53:17.288Z,72.50
2022-09-12T01:55:45.485Z,73.20
2022-09-12T01:58:13.770Z,72.60
2022-09-12T02:00:43.578Z,71.70
2022-09-12T02:03:12.490Z,72.80
2022-09-12T02:05:40.894Z,72.70
2022-09-12T02:08:09.739Z,72.50
2022-09-12T02:10:41.862Z,73.30
2022-09-12T02:13:10.979Z,72.50
2022-09-12T02:15:39.632Z,71.90
2022-09-12T02:18:07.574Z,72.10
2022-09-12T02:20:51.033Z,72.40
2022-09-12T02:23:20.616Z,72.90
2022-09-12T02:25:50.212Z,72.60
2022-09-12T02:28:18.450Z,71.80
2022-09-12T02:30:47.105Z,71.30
2022-09-12T02:33:16.334Z,71.50
2022-09-12T02:35:45.477Z,72.10
2022-09-12T02:38:14.373Z,72.90
2022-09-12T02:40:42.246Z,72.40
2022-09-12T02:43:11.503Z,70.80
2022-09-12T02:45:39.402Z,73.20
2022-09-12T02:48:07.503Z,72.00
2022-09-12T02:50:35.346Z,71.60
2022-09-12T02:53:05.075Z,71.70
2022-09-12T02:55:32.966Z,71.50
2022-09-12T02:58:01.197Z,72.10
2022-09-12T03:00:31.099Z,72.70
2022-09-12T03:03:10.872Z,73.30
2022-09-12T03:05:39.065Z,72.00
2022-09-12T03:08:14.342Z,73.00
2022-09-12T03:10:44.157Z,72.80
2022-09-12T03:13:16.033Z,72.90
2022-09-12T03:15:47.407Z,72.30
2022-09-12T03:18:19.853Z,71.70
2022-09-12T03:20:49.500Z,72.00
2022-09-12T03:23:20.185Z,72.20
2022-09-12T03:25:49.335Z,72.10
2022-09-12T03:28:17.382Z,72.80
2022-09-12T03:30:46.919Z,72.30
2022-09-12T03:33:14.911Z,73.80
2022-09-12T03:35:43.118Z,73.80
2022-09-12T03:38:11.032Z,72.90
2022-09-12T03:40:38.904Z,71.80
2022-09-12T03:43:07.956Z,71.50
2022-09-12T03:45:37.907Z,71.30
2022-09-12T03:48:07.443Z,72.60
2022-09-12T03:50:35.294Z,72.60
2022-09-12T03:53:03.184Z,73.40
2022-09-12T03:55:31.126Z,72.60
2022-09-12T03:57:58.990Z,73.20
2022-09-12T04:00:27.314Z,72.70
2022-09-12T04:02:56.418Z,72.70
2022-09-12T04:05:25.761Z,73.10
2022-09-12T04:07:53.632Z,72.90
2022-09-12T04:10:21.490Z,73.00
2022-09-12T04:12:49.382Z,72.90
2022-09-12T04:15:17.241Z,73.80
2022-09-12T04:17:45.096Z,73.20
2022-09-12T04:20:12.935Z,72.40
2022-09-12T04:22:42.186Z,71.60
2022-09-12T04:25:10.540Z,71.20
2022-09-12T04:27:38.524Z,71.60
2022-09-12T04:30:06.953Z,73.10
2022-09-12T04:32:34.831Z,73.70
2022-09-12T04:35:02.666Z,73.20
2022-09-12T04:37:30.544Z,72.50
2022-09-12T04:39:59.773Z,71.90
2022-09-12T04:42:27.683Z,72.50
2022-09-12T04:44:55.514Z,72.30
2022-09-12T04:47:23.397Z,71.50
2022-09-12T04:49:51.638Z,71.90
2022-09-12T04:52:19.526Z,70.80
2022-09-12T04:54:47.392Z,71.10
2022-09-12T04:57:16.640Z,72.70
2022-09-12T04:59:44.519Z,72.40
2022-09-12T05:02:12.422Z,72.80
2022-09-12T05:04:40.770Z,71.70
2022-09-12T05:07:08.633Z,71.60
2022-09-12T05:09:36.474Z,71.40
2022-09-12T05:12:05.543Z,73.30
2022-09-12T05:14:35.703Z,73.10
2022-09-12T05:17:04.221Z,72.90
2022-09-12T05:19:32.287Z,73.50
2022-09-12T05:22:00.334Z,73.20
2022-09-12T05:24:28.188Z,73.10
2022-09-12T05:26:56.063Z,72.90
2022-09-12T05:29:25.210Z,72.40
2022-09-12T05:31:54.519Z,71.40
2022-09-12T05:34:22.498Z,71.80
2022-09-12T05:36:50.412Z,72.80
2022-09-12T05:39:18.623Z,71.70
2022-09-12T05:41:47.619Z,72.10
2022-09-12T05:44:15.597Z,72.10
2022-09-12T05:46:44.315Z,72.20
2022-09-12T05:49:14.731Z,71.80
2022-09-12T05:51:43.037Z,72.40
2022-09-12T05:54:12.012Z,72.70
2022-09-12T05:56:40.811Z,73.10
2022-09-12T05:59:09.069Z,71.30
2022-09-12T06:01:36.994Z,70.50
2022-09-12T06:04:05.634Z,71.30
2022-09-12T06:06:36.908Z,72.10
2022-09-12T06:09:05.407Z,72.00
2022-09-12T06:11:33.923Z,71.60
2022-09-12T06:14:01.790Z,71.40
2022-09-12T06:16:30.187Z,70.90
2022-09-12T06:18:58.476Z,67.20
2022-09-12T06:21:26.550Z,65.10
2022-09-12T06:23:55.951Z,65.30
2022-09-12T06:26:25.734Z,63.40
2022-09-12T06:28:54.076Z,64.90
2022-09-12T06:31:22.473Z,64.00
2022-09-12T06:33:51.828Z,63.80
2022-09-12T06:36:21.201Z,63.50
2022-09-12T06:38:49.810Z,64.00
2022-09-12T06:41:19.058Z,64.60
2022-09-12T06:43:46.984Z,63.60
2022-09-12T06:46:15.018Z,62.30
2022-09-12T06:48:43.054Z,63.00
2022-09-12T06:51:11.487Z,63.60
2022-09-12T06:53:39.470Z,62.40
2022-09-12T06:56:07.921Z,62.90
2022-09-12T06:58:37.231Z,61.90
2022-09-12T07:01:05.484Z,61.40
2022-09-12T07:03:33.701Z,60.80
2022-09-12T07:06:03.500Z,61.40
2022-09-12T07:08:31.911Z,60.50
2022-09-12T07:11:01.332Z,60.00
2022-09-12T07:13:29.954Z,59.30
2022-09-12T07:15:59.668Z,59.70
2022-09-12T07:18:27.688Z,59.10
2022-09-12T07:20:55.536Z,59.00
2022-09-12T07:23:23.400Z,58.40
2022-09-12T07:25:53.696Z,57.20
2022-09-12T07:28:23.608Z,59.20
2022-09-12T07:30:51.575Z,57.40
2022-09-12T07:33:21.275Z,56.60
2022-09-12T07:35:49.638Z,56.30
2022-09-12T07:38:17.661Z,55.40
2022-09-12T07:40:45.580Z,55.40
2022-09-12T07:43:13.468Z,56.00
2022-09-12T07:45:42.768Z,54.90
2022-09-12T07:48:10.800Z,54.40
2022-09-12T07:50:44.533Z,54.10
2022-09-12T07:53:13.042Z,52.90
2022-09-12T07:55:40.923Z,53.90
2022-09-12T07:58:08.837Z,53.40
2022-09-12T08:00:37.856Z,53.10
2022-09-12T08:03:07.340Z,52.50
2022-09-12T08:05:35.264Z,52.00
2022-09-12T08:08:04.657Z,51.80
2022-09-12T08:10:32.493Z,51.00
2022-09-12T08:13:00.366Z,52.30
2022-09-12T08:15:28.285Z,52.60
2022-09-12T08:17:56.207Z,51.30
2022-09-12T08:20:28.166Z,52.20
2022-09-12T08:22:56.949Z,52.30
2022-09-12T08:25:27.174Z,53.90
2022-09-12T08:27:55.803Z,52.20
2022-09-12T08:30:23.668Z,50.10
2022-09-12T08:32:54.440Z,50.00
2022-09-12T08:35:22.332Z,49.00
2022-09-12T08:37:50.212Z,48.10
2022-09-12T08:40:19.047Z,48.90
2022-09-12T08:42:50.887Z,47.40
2022-09-12T08:45:19.659Z,50.00
2022-09-12T08:47:47.589Z,47.30
2022-09-12T08:50:17.763Z,48.80
2022-09-12T08:52:49.120Z,51.00
2022-09-12T08:55:26.180Z,48.50
2022-09-12T08:57:55.478Z,46.80
2022-09-12T09:00:23.650Z,45.50
2022-09-12T09:02:56.137Z,46.20
2022-09-12T09:05:24.693Z,47.80
2022-09-12T09:07:58.265Z,49.40
2022-09-12T09:10:28.249Z,48.40
2022-09-12T09:12:59.312Z,46.60
2022-09-12T09:15:41.348Z,41.20
2022-09-12T09:18:11.909Z,37.40
2022-09-12T09:20:40.147Z,40.80
2022-09-12T09:23:09.016Z,43.10
2022-09-12T09:25:42.227Z,42.90
2022-09-12T09:28:13.140Z,43.30
2022-09-12T09:30:41.108Z,43.50
2022-09-12T09:33:11.138Z,44.40
2022-09-12T09:35:40.309Z,43.80
2022-09-12T09:38:12.538Z,45.60
2022-09-12T09:40:42.852Z,46.00
2022-09-12T09:43:17.620Z,43.30
2022-09-12T09:45:47.816Z,42.90
2022-09-12T09:48:17.360Z,44.10
2022-09-12T09:50:45.448Z,44.00
2022-09-12T09:53:13.801Z,42.60
2022-09-12T09:55:42.289Z,44.10
2022-09-12T09:58:10.170Z,41.70
2022-09-12T10:00:39.700Z,41.30
2022-09-12T10:03:20.563Z,42.90
2022-09-12T10:05:48.962Z,41.80
2022-09-12T10:08:23.405Z,42.20
2022-09-12T10:10:55.163Z,44.80
2022-09-12T10:13:25.230Z,44.30
2022-09-12T10:16:01.261Z,44.70
2022-09-12T10:18:39.166Z,42.90
2022-09-12T10:21:14.065Z,42.30
2022-09-12T10:23:42.087Z,42.00
2022-09-12T10:26:11.330Z,42.50
2022-09-12T10:28:39.876Z,41.80
2022-09-12T10:31:09.950Z,40.30
2022-09-12T10:33:41.482Z,40.50
2022-09-12T10:36:09.394Z,43.00
2022-09-12T10:38:37.505Z,40.30
2022-09-12T10:41:06.593Z,38.40
2022-09-12T10:43:36.281Z,40.40
2022-09-12T10:46:19.401Z,40.60
2022-09-12T10:48:48.743Z,40.00
2022-09-12T10:51:17.092Z,38.50
2022-09-12T10:53:45.663Z,37.90
2022-09-12T10:56:13.870Z,40.30
2022-09-12T10:58:49.906Z,38.90
2022-09-12T11:01:20.290Z,39.80
2022-09-12T11:03:54.379Z,41.60
2022-09-12T11:06:25.131Z,40.70
2022-09-12T11:08:55.960Z,38.80
2022-09-12T11:11:29.736Z,37.10
2022-09-12T11:14:01.142Z,37.70
2022-09-12T11:16:31.364Z,38.60
2022-09-12T11:19:17.164Z,37.10
2022-09-12T11:21:49.735Z,37.30
2022-09-12T11:24:23.949Z,38.60
2022-09-12T11:26:54.496Z,37.80
2022-09-12T11:29:24.819Z,35.80
2022-09-12T11:32:04.114Z,35.40
2022-09-12T11:34:34.637Z,35.70
2022-09-12T11:37:18.170Z,36.30
2022-09-12T11:39:46.824Z,39.40
2022-09-12T11:42:16.974Z,37.20
2022-09-12T11:44:46.174Z,36.90
2022-09-12T11:47:14.600Z,35.90
2022-09-12T11:49:43.349Z,37.10
2022-09-12T11:52:15.041Z,37.10
2022-09-12T11:54:53.861Z,36.40
2022-09-12T11:57:29.953Z,37.10
2022-09-12T12:00:05.179Z,34.80
2022-09-12T12:02:44.600Z,33.80
2022-09-12T12:05:31.758Z,35.10
2022-09-12T12:08:02.527Z,35.50
2022-09-12T12:10:36.371Z,35.20
2022-09-12T12:13:05.838Z,36.60
2022-09-12T12:15:41.933Z,35.00
2022-09-12T12:18:43.415Z,34.40
2022-09-12T12:21:35.583Z,38.60
2022-09-12T12:24:23.155Z,34.10
2022-09-12T12:27:00.980Z,37.20
2022-09-12T12:29:52.640Z,36.90
2022-09-12T12:32:29.967Z,36.40
2022-09-12T12:35:19.010Z,36.10
2022-09-12T12:44:05.935Z,39.00
2022-09-12T12:46:48.602Z,35.00
2022-09-12T12:49:40.069Z,33.70
2022-09-12T12:55:33.965Z,32.80
2022-09-12T12:58:02.313Z,34.10
2022-09-12T13:00:58.646Z,32.90
2022-09-12T13:03:32.013Z,34.50
2022-09-12T13:06:09.730Z,35.20
2022-09-12T13:08:49.238Z,34.20
2022-09-12T13:11:19.138Z,33.30
2022-09-12T13:14:01.130Z,33.10
2022-09-12T13:16:59.670Z,35.00
2022-09-12T13:20:16.927Z,32.80
2022-09-12T13:22:51.815Z,31.00
2022-09-12T13:25:24.088Z,33.30
2022-09-12T13:28:01.593Z,29.50
2022-09-12T13:30:29.672Z,29.20
2022-09-12T13:32:58.176Z,30.30
2022-09-12T13:35:41.932Z,29.60
2022-09-12T13:38:19.518Z,28.40
2022-09-12T13:41:03.435Z,28.50
2022-09-12T13:43:41.299Z,32.70
2022-09-12T13:46:11.120Z,30.10
2022-09-12T13:48:49.404Z,32.10
2022-09-12T13:51:28.004Z,32.50
2022-09-12T13:54:08.680Z,32.50
2022-09-12T13:56:59.077Z,29.20
2022-09-12T13:59:33.304Z,29.00
2022-09-12T14:02:06.572Z,29.20
2022-09-12T14:04:59.058Z,29.80
2022-09-12T14:07:31.387Z,29.60
2022-09-12T14:10:07.053Z,29.00
2022-09-12T14:12:41.107Z,31.80
2022-09-12T14:15:12.190Z,30.80
2022-09-12T14:17:41.906Z,28.50
2022-09-12T14:20:12.775Z,29.10
2022-09-12T14:22:52.540Z,29.00
2022-09-12T14:25:24.791Z,30.50
2022-09-12T14:28:03.997Z,28.70
2022-09-12T14:30:35.073Z,30.40
2022-09-12T14:33:28.465Z,28.70
2022-09-12T14:36:09.049Z,29.30
2022-09-12T14:38:47.460Z,31.50
2022-09-12T14:41:15.850Z,31.20
2022-09-12T14:43:44.240Z,29.40
2022-09-12T14:46:16.640Z,29.70
2022-09-12T14:48:45.695Z,30.10
2022-09-12T14:51:17.833Z,33.20
2022-09-12T14:53:50.227Z,29.90
2022-09-12T14:56:18.253Z,29.90
2022-09-12T14:58:46.246Z,31.10
2022-09-12T15:01:24.610Z,32.40
2022-09-12T15:03:54.028Z,31.00
2022-09-12T15:06:23.164Z,29.40
2022-09-12T15:08:52.489Z,29.40
2022-09-12T15:11:20.409Z,31.00
2022-09-12T15:13:48.385Z,31.60
2022-09-12T15:16:16.518Z,30.50
2022-09-12T15:18:44.652Z,30.00
2022-09-12T15:21:16.155Z,29.40
2022-09-12T15:23:44.993Z,29.00
2022-09-12T15:26:35.440Z,29.90
2022-09-12T15:29:23.974Z,30.50
2022-09-12T15:32:01.865Z,30.90
2022-09-12T15:34:43.834Z,33.50
2022-09-12T15:37:29.299Z,34.50
2022-09-12T15:42:50.410Z,34.30
2022-09-12T15:45:27.143Z,31.90
2022-09-12T15:48:15.391Z,31.60
2022-09-12T15:50:47.907Z,32.00
2022-09-12T15:53:23.032Z,32.50
2022-09-12T15:56:08.644Z,32.40
2022-09-12T15:59:02.750Z,33.30
2022-09-12T16:01:32.650Z,30.70
2022-09-12T16:04:03.407Z,31.20
2022-09-12T16:06:37.215Z,30.50
2022-09-12T16:09:07.364Z,33.80
2022-09-12T16:11:35.648Z,34.30
2022-09-12T16:14:03.840Z,31.20
2022-09-12T16:16:32.972Z,30.10
2022-09-12T16:19:02.549Z,32.60
2022-09-12T16:21:32.068Z,32.50
2022-09-12T16:24:00.173Z,36.40
2022-09-12T16:26:29.518Z,32.00
2022-09-12T16:28:57.634Z,35.00
2022-09-12T16:31:25.817Z,33.30
2022-09-12T16:33:53.907Z,31.90
2022-09-12T16:36:23.232Z,36.30
2022-09-12T16:38:52.396Z,35.30
2022-09-12T16:41:20.968Z,34.00
2022-09-12T16:43:49.475Z,34.30
2022-09-12T16:46:18.208Z,35.60
2022-09-12T16:48:51.765Z,36.00
2022-09-12T16:51:21.460Z,35.50
2022-09-12T16:53:51.085Z,35.40
2022-09-12T16:56:19.280Z,36.40
2022-09-12T16:58:47.812Z,37.70
2022-09-12T17:01:16.387Z,36.90
2022-09-12T17:03:44.458Z,38.70
2022-09-12T17:06:13.208Z,38.00
2022-09-12T17:08:41.862Z,38.60
2022-09-12T17:11:12.407Z,39.40
2022-09-12T17:14:03.128Z,40.40
2022-09-12T17:16:28.903Z,40.60
2022-09-12T17:18:56.925Z,42.30
2022-09-12T17:21:24.933Z,43.10
2022-09-12T17:23:52.927Z,43.40
2022-09-12T17:26:22.537Z,44.30
2022-09-12T17:28:51.060Z,45.10
2022-09-12T17:31:20.090Z,45.30
2022-09-12T17:33:48.504Z,46.50
2022-09-12T17:36:16.994Z,46.40
2022-09-12T17:38:45.377Z,46.80
2022-09-12T17:41:16.128Z,46.90
2022-09-12T17:43:46.096Z,47.80
2022-09-12T17:46:14.311Z,48.00
2022-09-12T17:48:42.643Z,48.80
2022-09-12T17:51:10.652Z,48.60
2022-09-12T17:53:38.731Z,48.80
2022-09-12T17:56:06.952Z,50.80
2022-09-12T17:58:34.906Z,50.10
2022-09-12T18:01:22.274Z,49.90
2022-09-12T18:03:50.754Z,52.00
2022-09-12T18:06:18.859Z,52.60
2022-09-12T18:08:46.781Z,52.40
2022-09-12T18:11:14.852Z,52.10
2022-09-12T18:13:42.828Z,52.30
2022-09-12T18:16:12.654Z,52.60
2022-09-12T18:18:40.853Z,52.40
2022-09-12T18:21:09.379Z,52.60
2022-09-12T18:23:37.293Z,52.50
2022-09-12T18:26:05.667Z,52.90
2022-09-12T18:28:33.674Z,53.10
2022-09-12T18:31:01.706Z,53.30
2022-09-12T18:33:31.105Z,53.20
2022-09-12T18:35:59.095Z,53.80
2022-09-12T18:38:26.991Z,54.40
2022-09-12T18:41:02.215Z,54.70
2022-09-12T18:43:30.356Z,55.00
2022-09-12T18:45:58.797Z,54.60
2022-09-12T18:48:26.765Z,56.10
2022-09-12T18:50:56.240Z,56.00
2022-09-12T18:53:24.180Z,54.90
2022-09-12T18:55:52.092Z,55.40
2022-09-12T18:58:20.165Z,54.90
2022-09-12T19:00:49.613Z,54.60
2022-09-12T19:03:17.607Z,54.70
2022-09-12T19:05:45.527Z,55.40
2022-09-12T19:08:14.967Z,55.70
2022-09-12T19:10:42.964Z,56.10
2022-09-12T19:13:10.887Z,56.60
2022-09-12T19:15:40.453Z,56.20
2022-09-12T19:18:09.634Z,56.10
2022-09-12T19:20:38.314Z,55.60
2022-09-12T19:23:06.655Z,55.70
2022-09-12T19:25:36.201Z,55.80
2022-09-12T19:28:04.174Z,56.00
2022-09-12T19:30:32.063Z,56.10
2022-09-12T19:33:00.514Z,55.90
2022-09-12T19:35:28.448Z,56.10
2022-09-12T19:37:56.442Z,57.10
2022-09-12T19:40:24.511Z,57.20
2022-09-12T19:42:53.899Z,57.10
2022-09-12T19:45:21.884Z,56.80
2022-09-12T19:47:49.917Z,57.00
2022-09-12T19:50:17.996Z,57.40
2022-09-12T19:52:45.903Z,57.50
2022-09-12T19:55:13.858Z,56.50
2022-09-12T19:57:41.823Z,57.00
2022-09-12T20:00:12.273Z,56.50
2022-09-12T20:02:40.423Z,57.00
2022-09-12T20:05:08.704Z,56.50
2022-09-12T20:07:36.837Z,56.90
2022-09-12T20:10:05.364Z,56.70
2022-09-12T20:12:33.864Z,57.60
2022-09-12T20:15:01.874Z,57.70
2022-09-12T20:17:31.700Z,57.70
2022-09-12T20:19:59.711Z,57.90
2022-09-12T20:22:27.892Z,56.90
2022-09-12T20:24:55.845Z,58.00
2022-09-12T20:27:23.819Z,57.70
2022-09-12T20:29:52.638Z,57.70
2022-09-12T20:32:20.651Z,57.50
2022-09-12T20:34:49.999Z,58.70
2022-09-12T20:37:18.094Z,58.00
2022-09-12T20:39:50.223Z,58.30
2022-09-12T20:42:18.773Z,58.20
2022-09-12T20:44:46.665Z,58.40
2022-09-12T20:47:14.648Z,58.80
2022-09-12T20:49:42.539Z,57.80
2022-09-12T20:52:11.947Z,57.10
2022-09-12T20:54:39.845Z,59.20
2022-09-12T20:57:07.797Z,59.70
2022-09-12T20:59:39.458Z,61.00
2022-09-12T21:02:07.492Z,60.70
2022-09-12T21:04:35.455Z,59.80
2022-09-12T21:07:03.464Z,60.00
2022-09-12T21:09:33.182Z,59.90
2022-09-12T21:12:01.286Z,60.10
2022-09-12T21:14:29.301Z,59.60
2022-09-12T21:16:57.202Z,59.40
2022-09-12T21:19:25.154Z,58.00
2022-09-12T21:21:53.148Z,57.60
2022-09-12T21:24:21.821Z,57.20
2022-09-12T21:26:51.243Z,57.10
2022-09-12T21:29:19.155Z,58.30
2022-09-12T21:31:47.158Z,58.40
2022-09-12T21:34:15.055Z,58.00
2022-09-12T21:36:43.448Z,58.60
2022-09-12T21:39:11.392Z,58.00
2022-09-12T21:41:39.439Z,58.60
2022-09-12T21:44:08.878Z,58.50
2022-09-12T21:46:36.883Z,58.50
2022-09-12T21:49:05.412Z,58.30
2022-09-12T21:51:33.382Z,58.80
2022-09-12T21:54:01.531Z,58.00
2022-09-12T21:56:29.566Z,57.70
2022-09-12T21:58:57.546Z,56.80
2022-09-12T22:01:26.967Z,55.80
2022-09-12T22:03:54.925Z,55.60
2022-09-12T22:06:22.845Z,55.70
2022-09-12T22:08:50.761Z,55.40
2022-09-12T22:11:21.356Z,55.30
2022-09-12T22:13:49.630Z,56.50
2022-09-12T22:16:17.851Z,56.60
2022-09-12T22:18:47.723Z,57.10
2022-09-12T22:21:15.918Z,56.80
2022-09-12T22:24:01.149Z,57.00
2022-09-12T22:26:29.265Z,57.00
2022-09-12T22:28:57.220Z,57.20
2022-09-12T22:31:26.646Z,57.40
2022-09-12T22:33:57.469Z,57.10
2022-09-12T22:36:30.505Z,55.90
2022-09-12T22:38:59.222Z,55.70
2022-09-12T22:41:27.245Z,54.60
2022-09-12T22:43:55.240Z,54.20
2022-09-12T22:46:24.075Z,56.90
2022-09-12T22:48:52.324Z,57.50
2022-09-12T22:51:21.609Z,58.00
2022-09-12T22:53:49.571Z,57.40
2022-09-12T22:56:17.506Z,56.60
2022-09-12T22:58:45.443Z,57.40
2022-09-12T23:01:13.419Z,58.20
2022-09-12T23:03:41.507Z,58.90
2022-09-12T23:06:10.054Z,59.70
2022-09-12T23:08:40.028Z,59.60
2022-09-12T23:11:09.399Z,60.40
2022-09-12T23:13:37.755Z,60.10
2022-09-12T23:16:06.304Z,59.30
2022-09-12T23:18:34.960Z,59.60
2022-09-12T23:21:03.481Z,58.00
2022-09-12T23:23:31.474Z,59.00
2022-09-12T23:26:04.365Z,59.80
2022-09-12T23:28:32.359Z,59.70
2022-09-12T23:31:00.706Z,60.00
2022-09-12T23:33:29.169Z,60.10
2022-09-12T23:36:01.868Z,59.30
2022-09-12T23:38:30.208Z,59.50
2022-09-12T23:40:58.123Z,60.10
2022-09-12T23:43:27.498Z,60.00
2022-09-12T23:45:55.562Z,59.80
2022-09-12T23:48:23.600Z,59.90
2022-09-12T23:50:51.837Z,59.10
2022-09-12T23:53:19.922Z,59.40
2022-09-12T23:55:47.886Z,59.90
2022-09-12T23:58:15.903Z,59.60
